Time;durP1;ratioP1;P1;durP2;ratioP2;P2;SDS_P1;SDS_P2;PMS_P1;PMS_P2;Temp;Humidity;BMP_temperature;BMP_pressure;BME280_temperature;BME280_humidity;BME280_pressure;Samples;Min_cycle;Max_cycle;Signal;HPM_P1;HPM_P2
2022/03/05 00:01:14;;;;;;;13.00;5.93;;;-2.20;99.90;;;;;;5051911;28;20068;-62
2022/03/05 00:03:41;;;;;;;15.35;5.43;;;-2.20;99.90;;;;;;5052101;28;20116;-62
2022/03/05 00:06:08;;;;;;;16.15;6.05;;;-2.20;99.90;;;;;;5051545;28;20068;-62
2022/03/05 00:08:35;;;;;;;15.90;5.63;;;-2.20;99.90;;;;;;5048891;28;20040;-60
2022/03/05 00:11:02;;;;;;;17.02;5.75;;;-2.10;99.90;;;;;;5051108;28;20135;-60
2022/03/05 00:13:30;;;;;;;16.95;6.00;;;-2.10;99.90;;;;;;5051718;28;20037;-60
2022/03/05 00:15:57;;;;;;;17.27;5.60;;;-2.10;99.90;;;;;;5049112;28;20152;-60
2022/03/05 00:18:24;;;;;;;18.95;6.50;;;-2.20;99.90;;;;;;5051451;28;20043;-60
2022/03/05 00:20:53;;;;;;;12.80;5.53;;;-2.20;99.90;;;;;;5051918;28;20485;-60
2022/03/05 00:23:20;;;;;;;16.77;5.60;;;-2.20;99.90;;;;;;5050778;28;20099;-62
2022/03/05 00:25:47;;;;;;;13.27;5.88;;;-2.20;99.90;;;;;;5050187;28;20048;-60
2022/03/05 00:28:14;;;;;;;20.42;6.45;;;-2.20;99.90;;;;;;5049418;28;20041;-60
2022/03/05 00:30:41;;;;;;;13.27;5.75;;;-2.20;99.90;;;;;;5052027;28;20166;-60
2022/03/05 00:33:08;;;;;;;13.90;5.53;;;-2.20;99.90;;;;;;5050975;28;20037;-61
2022/03/05 00:35:35;;;;;;;14.50;5.40;;;-2.30;99.90;;;;;;5049785;28;20132;-60
2022/03/05 00:38:02;;;;;;;14.88;5.95;;;-2.30;99.90;;;;;;5051340;28;20489;-60
2022/03/05 00:40:29;;;;;;;;;;;-2.40;99.90;;;;;;5051839;28;20037;-60
2022/03/05 00:42:56;;;;;;;14.88;5.90;;;-2.40;99.90;;;;;;5051560;28;19974;-62
2022/03/05 00:45:23;;;;;;;15.50;6.28;;;-2.60;99.90;;;;;;5048093;28;20132;-60
2022/03/05 00:47:51;;;;;;;13.65;5.78;;;-2.60;99.90;;;;;;5051334;28;20045;-60
2022/03/05 00:50:17;;;;;;;9.18;3.92;;;-2.60;99.90;;;;;;5051555;28;20102;-60
2022/03/05 00:52:44;;;;;;;17.33;6.45;;;-2.60;99.90;;;;;;5051435;28;20041;-62
2022/03/05 00:55:11;;;;;;;18.25;6.45;;;-2.60;99.90;;;;;;5045722;28;20051;-60
2022/03/05 00:57:38;;;;;;;13.13;5.35;;;-2.60;99.90;;;;;;5050947;28;20052;-62
2022/03/05 01:00:07;;;;;;;16.58;5.88;;;-2.60;99.90;;;;;;5051355;28;20119;-62
2022/03/05 01:02:34;;;;;;;13.43;5.90;;;-2.50;99.90;;;;;;5046441;28;20505;-62
2022/03/05 01:05:01;;;;;;;16.30;6.45;;;-2.50;99.90;;;;;;5048257;28;20036;-62
2022/03/05 01:07:28;;;;;;;17.88;6.63;;;-2.50;99.90;;;;;;5050719;28;20638;-62
2022/03/05 01:09:54;;;;;;;19.77;6.22;;;-2.60;99.90;;;;;;5051331;28;20037;-62
2022/03/05 01:12:22;;;;;;;15.35;5.93;;;-2.60;99.90;;;;;;5044415;28;20040;-62
2022/03/05 01:14:49;;;;;;;17.13;6.00;;;-2.60;99.90;;;;;;5051028;28;20047;-62
2022/03/05 01:17:16;;;;;;;14.35;5.80;;;-2.70;99.90;;;;;;5051077;28;20075;-62
2022/03/05 01:19:44;;;;;;;15.95;6.25;;;-2.70;99.90;;;;;;5049187;28;20044;-62
2022/03/05 01:22:11;;;;;;;18.77;5.63;;;-2.70;99.90;;;;;;5033147;28;20045;-62
2022/03/05 01:24:37;;;;;;;15.35;6.18;;;-2.60;99.90;;;;;;5051106;28;20501;-61
2022/03/05 01:27:09;;;;;;;14.18;6.07;;;-2.60;99.90;;;;;;5042709;28;20116;-62
2022/03/05 01:29:36;;;;;;;13.23;6.00;;;-2.60;99.90;;;;;;5050529;28;20485;-62
2022/03/05 01:32:04;;;;;;;14.05;5.05;;;-2.60;99.90;;;;;;5051053;28;20402;-62
2022/03/05 01:34:30;;;;;;;16.23;6.07;;;-2.70;99.90;;;;;;5051119;28;20049;-61
2022/03/05 01:36:57;;;;;;;12.75;4.72;;;-2.80;99.90;;;;;;5049284;28;20052;-62
2022/03/05 01:39:24;;;;;;;13.70;5.80;;;-2.80;99.90;;;;;;5050461;28;20133;-62
2022/03/05 01:41:54;;;;;;;17.63;6.38;;;-2.80;99.90;;;;;;5051019;28;20048;-62
2022/03/05 01:44:24;;;;;;;17.23;5.82;;;-2.80;99.90;;;;;;5053256;28;20444;-62
2022/03/05 01:46:51;;;;;;;15.95;5.70;;;-2.80;99.90;;;;;;5054383;28;20493;-62
2022/03/05 01:49:18;;;;;;;16.85;5.72;;;-2.80;99.90;;;;;;5054140;28;20079;-62
2022/03/05 01:51:45;;;;;;;;;;;-2.90;99.90;;;;;;5055302;28;20052;-62
2022/03/05 01:54:14;;;;;;;18.45;6.07;;;-2.90;99.90;;;;;;5047642;28;20019;-62
2022/03/05 01:56:42;;;;;;;16.35;6.47;;;-2.90;99.90;;;;;;5054631;28;20516;-62
2022/03/05 01:59:10;;;;;;;18.33;5.82;;;-3.00;99.90;;;;;;5054098;28;20077;-62
2022/03/05 02:01:37;;;;;;;;;;;-3.00;99.90;;;;;;5052793;28;20045;-62
2022/03/05 02:04:05;;;;;;;14.43;5.50;;;-3.00;99.90;;;;;;5054337;28;20049;-62
2022/03/05 02:06:32;;;;;;;17.65;5.95;;;-3.00;99.90;;;;;;5054607;28;20508;-62
2022/03/05 02:08:59;;;;;;;14.20;4.95;;;-3.00;99.90;;;;;;5045469;28;20041;-61
2022/03/05 02:11:27;;;;;;;16.25;6.28;;;-3.00;99.90;;;;;;5046330;28;20041;-62
2022/03/05 02:13:54;;;;;;;13.82;4.78;;;-3.00;99.90;;;;;;5054388;28;20068;-61
2022/03/05 02:16:22;;;;;;;15.25;6.15;;;-3.10;99.90;;;;;;5050358;28;20032;-62
2022/03/05 02:18:51;;;;;;;15.07;5.82;;;-3.10;99.90;;;;;;5053601;28;20560;-62
2022/03/05 02:21:18;;;;;;;15.02;6.00;;;-3.00;99.90;;;;;;5054223;28;20052;-61
2022/03/05 02:23:44;;;;;;;13.45;6.10;;;-3.00;99.90;;;;;;5052699;28;20484;-62
2022/03/05 02:26:11;;;;;;;12.45;5.53;;;-3.00;99.90;;;;;;5052162;28;20037;-62
2022/03/05 02:28:38;;;;;;;13.10;4.22;;;-3.00;99.90;;;;;;5053886;28;20045;-62
2022/03/05 02:31:06;;;;;;;15.73;5.55;;;-3.00;99.90;;;;;;5053954;28;20041;-62
2022/03/05 02:33:33;;;;;;;18.00;5.50;;;-3.00;99.90;;;;;;5052605;28;20099;-62
2022/03/05 02:36:01;;;;;;;16.10;6.13;;;-3.10;99.90;;;;;;5050400;28;20041;-62
2022/03/05 02:38:28;;;;;;;14.57;5.55;;;-3.10;99.90;;;;;;5053629;28;20056;-61
2022/03/05 02:40:55;;;;;;;13.88;5.10;;;-3.10;99.90;;;;;;5053709;28;20041;-60
2022/03/05 02:43:22;;;;;;;16.30;5.50;;;-3.10;99.90;;;;;;5052694;28;20049;-61
2022/03/05 02:45:50;;;;;;;15.90;6.20;;;-3.00;99.90;;;;;;5053723;28;20489;-61
2022/03/05 02:48:18;;;;;;;17.90;6.50;;;-3.00;99.90;;;;;;5053250;28;20053;-62
2022/03/05 02:50:46;;;;;;;17.67;6.07;;;-2.90;99.90;;;;;;5053715;28;20103;-62
2022/03/05 02:53:13;;;;;;;18.13;6.00;;;-2.90;99.90;;;;;;5050210;28;20045;-61
2022/03/05 02:55:40;;;;;;;;;;;-3.00;99.90;;;;;;5053082;28;20040;-61
2022/03/05 02:58:08;;;;;;;15.93;5.97;;;-3.00;99.90;;;;;;5053019;28;20311;-61
2022/03/05 03:00:35;;;;;;;14.70;5.38;;;-3.00;99.90;;;;;;5035957;28;20099;-60
2022/03/05 03:03:02;;;;;;;15.13;5.78;;;-3.10;99.90;;;;;;5045666;28;20041;-60
2022/03/05 03:05:29;;;;;;;15.70;5.40;;;-3.10;99.90;;;;;;5053342;28;20036;-60
2022/03/05 03:07:56;;;;;;;14.73;5.13;;;-3.10;99.90;;;;;;5053045;28;20051;-60
2022/03/05 03:10:24;;;;;;;16.58;5.40;;;-3.10;99.90;;;;;;5053153;28;20033;-61
2022/03/05 03:12:51;;;;;;;12.10;5.18;;;-3.20;99.90;;;;;;5052209;28;20120;-61
2022/03/05 03:15:18;;;;;;;14.00;5.35;;;-3.20;99.90;;;;;;5053084;28;20072;-61
2022/03/05 03:17:50;;;;;;;18.00;6.15;;;-3.30;99.90;;;;;;5052815;28;20044;-62
2022/03/05 03:20:23;;;;;;;12.80;5.22;;;-3.30;99.90;;;;;;5053160;28;20052;-61
2022/03/05 03:22:51;;;;;;;13.07;5.65;;;-3.20;99.90;;;;;;5052877;28;20029;-61
2022/03/05 03:25:18;;;;;;;13.25;5.15;;;-3.20;99.90;;;;;;5052877;28;20092;-61
2022/03/05 03:27:45;;;;;;;12.27;5.00;;;-2.50;99.90;;;;;;5052495;28;20064;-59
2022/03/05 03:30:14;;;;;;;13.85;5.97;;;-3.20;99.90;;;;;;5052005;28;20037;-62
2022/03/05 03:32:41;;;;;;;12.32;5.10;;;-3.30;99.90;;;;;;5046798;28;20555;-61
2022/03/05 03:35:09;;;;;;;16.67;5.38;;;-3.40;99.90;;;;;;5052895;28;20532;-62
2022/03/05 03:37:36;;;;;;;14.63;6.07;;;-3.40;99.90;;;;;;5052208;28;20292;-62
2022/03/05 03:40:06;;;;;;;16.63;5.95;;;-3.40;99.90;;;;;;5062286;22;20040;-51
2022/03/05 03:42:34;;;;;;;15.38;5.55;;;-3.40;99.90;;;;;;5064707;28;20130;-51
2022/03/05 03:45:02;;;;;;;13.20;5.32;;;-3.40;99.90;;;;;;5068282;28;20550;-51
2022/03/05 03:47:28;;;;;;;15.57;5.80;;;-3.30;99.90;;;;;;5072114;28;20546;-50
2022/03/05 03:49:55;;;;;;;15.27;5.55;;;-3.30;99.90;;;;;;5063555;28;20471;-51
2022/03/05 03:52:22;;;;;;;14.93;5.45;;;-3.30;99.90;;;;;;5072010;28;20098;-52
2022/03/05 03:54:50;;;;;;;13.38;5.50;;;-3.30;99.90;;;;;;5072451;28;20550;-55
2022/03/05 03:57:17;;;;;;;16.15;5.68;;;-3.30;99.90;;;;;;5071291;28;20048;-53
2022/03/05 03:59:47;;;;;;;16.33;6.25;;;-3.30;99.90;;;;;;5066369;28;20550;-54
2022/03/05 04:02:14;;;;;;;14.13;5.30;;;-3.20;99.90;;;;;;5072181;28;20048;-49
2022/03/05 04:04:41;;;;;;;14.88;5.72;;;-3.20;99.90;;;;;;5072135;28;20173;-50
2022/03/05 04:09:56;;;;;;;12.68;5.93;;;-3.30;99.90;;;;;;5072128;28;20033;-51
2022/03/05 04:12:23;;;;;;;13.82;5.70;;;-3.30;99.90;;;;;;5072101;28;20048;-50
2022/03/05 04:14:50;;;;;;;12.27;5.20;;;-3.30;99.90;;;;;;5066292;28;20041;-50
2022/03/05 04:17:17;;;;;;;13.93;5.35;;;-3.40;99.90;;;;;;5070575;28;20086;-51
2022/03/05 04:19:44;;;;;;;;;;;-3.40;99.90;;;;;;5072076;28;20084;-49
2022/03/05 04:22:11;;;;;;;15.57;6.10;;;-3.40;99.90;;;;;;5069742;28;19928;-51
2022/03/05 04:24:38;;;;;;;22.77;6.90;;;-3.40;99.90;;;;;;5071729;28;20086;-53
2022/03/05 04:27:06;;;;;;;15.32;5.82;;;-3.50;99.90;;;;;;5072172;28;20032;-50
2022/03/05 04:29:33;;;;;;;;;;;-3.50;99.90;;;;;;5072006;28;20040;-54
2022/03/05 04:32:00;;;;;;;18.25;6.18;;;-3.50;99.90;;;;;;5068485;28;19928;-54
2022/03/05 04:34:27;;;;;;;15.40;6.60;;;-3.60;99.90;;;;;;5071895;28;20400;-51
2022/03/05 04:36:54;;;;;;;14.27;6.00;;;-3.60;99.90;;;;;;5071597;28;20094;-52
2022/03/05 04:39:20;;;;;;;18.83;6.30;;;-3.60;99.90;;;;;;5069873;28;20459;-50
2022/03/05 04:41:47;;;;;;;17.92;7.65;;;-3.70;99.90;;;;;;5066232;28;20040;-52
2022/03/05 04:44:15;;;;;;;18.17;6.65;;;-3.60;99.90;;;;;;5071709;28;20125;-51
2022/03/05 04:46:42;;;;;;;15.77;6.35;;;-3.70;99.90;;;;;;5071507;28;20041;-52
2022/03/05 04:49:13;;;;;;;16.50;6.35;;;-3.60;99.90;;;;;;5069628;28;20052;-50
2022/03/05 04:51:40;;;;;;;19.40;5.70;;;-3.60;99.90;;;;;;5071296;28;20063;-51
2022/03/05 04:54:07;;;;;;;12.48;5.10;;;-3.80;99.90;;;;;;5071575;28;20036;-51
2022/03/05 04:56:34;;;;;;;14.30;4.35;;;-3.90;99.90;;;;;;5067317;28;20044;-54
2022/03/05 04:59:00;;;;;;;16.15;6.07;;;-3.90;99.90;;;;;;5069705;28;20519;-53
2022/03/05 05:01:27;;;;;;;17.92;5.72;;;-4.00;99.90;;;;;;5071263;28;20052;-51
2022/03/05 05:03:56;;;;;;;18.80;6.78;;;-3.90;99.90;;;;;;5070070;28;20374;-51
2022/03/05 05:06:24;;;;;;;15.23;6.68;;;-3.90;99.90;;;;;;5071033;28;20044;-51
2022/03/05 05:08:52;;;;;;;17.63;7.70;;;-3.90;99.90;;;;;;5071192;28;20041;-50
2022/03/05 05:11:19;;;;;;;20.92;7.38;;;-3.90;99.90;;;;;;5071247;28;20036;-50
2022/03/05 05:13:46;;;;;;;14.60;6.32;;;-4.00;99.90;;;;;;5065696;28;20705;-52
2022/03/05 05:16:13;;;;;;;17.25;6.50;;;-4.00;99.90;;;;;;5071332;28;20048;-51
2022/03/05 05:19:24;;;;;;;18.33;6.78;;;-4.00;99.90;;;;;;5072394;28;20044;-51
2022/03/05 05:21:27;;;;;;;12.00;5.30;;;-4.10;99.90;;;;;;5073318;28;20082;-50
2022/03/05 05:23:54;;;;;;;14.43;4.40;;;-4.10;99.90;;;;;;5070858;28;20037;-51
2022/03/05 05:26:20;;;;;;;15.07;5.15;;;-4.10;99.90;;;;;;5075187;28;20102;-51
2022/03/05 05:28:48;;;;;;;16.58;5.82;;;-4.20;99.90;;;;;;5075007;28;20075;-53
2022/03/05 05:31:15;;;;;;;18.42;5.75;;;-4.30;99.90;;;;;;5072843;28;20068;-52
2022/03/05 05:33:44;;;;;;;;;;;-4.30;99.90;;;;;;5075467;28;20076;-51
2022/03/05 05:36:12;;;;;;;18.00;6.32;;;-4.30;99.90;;;;;;5074035;28;19920;-51
2022/03/05 05:38:39;;;;;;;26.17;7.07;;;-4.20;99.90;;;;;;5074059;28;20040;-50
2022/03/05 05:41:07;;;;;;;;;;;-4.20;99.90;;;;;;5071964;28;20074;-50
2022/03/05 05:43:34;;;;;;;17.17;6.50;;;-4.10;99.90;;;;;;5074820;28;19928;-54
2022/03/05 05:46:01;;;;;;;17.90;6.72;;;-4.10;99.90;;;;;;5074470;28;20306;-52
2022/03/05 05:48:48;;;;;;;18.52;6.38;;;-4.00;99.90;;;;;;5070798;28;20099;-54
2022/03/05 05:51:16;;;;;;;8.43;3.50;;;-4.00;99.90;;;;;;5072543;28;20041;-51
2022/03/05 05:53:43;;;;;;;19.00;5.93;;;-4.00;99.90;;;;;;5074661;28;20045;-51
2022/03/05 05:56:09;;;;;;;16.48;6.35;;;-3.90;99.90;;;;;;5074741;28;20044;-54
2022/03/05 05:58:36;;;;;;;15.77;6.28;;;-4.00;99.90;;;;;;5066038;28;20048;-52
2022/03/05 06:01:03;;;;;;;17.08;7.38;;;-3.90;99.90;;;;;;5074510;28;20051;-52
2022/03/05 06:03:30;;;;;;;19.02;7.28;;;-3.90;99.90;;;;;;5074395;28;20052;-55
2022/03/05 06:05:58;;;;;;;20.60;7.43;;;-3.90;99.90;;;;;;5069724;28;20084;-52
2022/03/05 06:08:25;;;;;;;17.38;6.93;;;-4.00;99.90;;;;;;5065708;28;20090;-52
2022/03/05 06:10:54;;;;;;;19.67;6.80;;;-4.00;99.90;;;;;;5074375;28;20090;-55
2022/03/05 06:13:21;;;;;;;19.90;7.43;;;-4.00;99.90;;;;;;5074388;28;20044;-53
2022/03/05 06:15:48;;;;;;;;;;;-4.00;99.90;;;;;;5070195;28;20120;-52
2022/03/05 06:18:15;;;;;;;23.08;6.05;;;-4.00;99.90;;;;;;5073732;28;19974;-54
2022/03/05 06:20:47;;;;;;;16.08;5.47;;;-3.90;99.90;;;;;;5073992;28;20054;-51
2022/03/05 06:23:14;;;;;;;16.02;6.32;;;-3.90;99.90;;;;;;5074298;28;20040;-54
2022/03/05 06:25:41;;;;;;;15.73;6.07;;;-3.90;99.90;;;;;;5067924;28;20033;-53
2022/03/05 06:28:08;;;;;;;16.35;6.97;;;-3.90;99.90;;;;;;5073579;28;20062;-54
2022/03/05 06:30:34;;;;;;;20.08;7.43;;;-3.80;99.90;;;;;;5061809;28;20109;-54
2022/03/05 06:33:02;;;;;;;19.25;6.93;;;-3.80;99.90;;;;;;5073997;28;20546;-51
2022/03/05 06:35:29;;;;;;;;;;;-3.80;99.90;;;;;;5074415;28;20041;-53
2022/03/05 06:37:55;;;;;;;19.52;7.07;;;-3.70;99.90;;;;;;5072609;28;20377;-51
2022/03/05 06:40:23;;;;;;;20.38;7.75;;;-3.70;99.90;;;;;;5072713;28;20043;-52
2022/03/05 06:42:49;;;;;;;22.02;8.27;;;-3.60;99.90;;;;;;5072719;28;20044;-50
2022/03/05 06:45:16;;;;;;;18.77;8.50;;;-3.60;99.90;;;;;;5073134;28;20036;-54
2022/03/05 06:47:43;;;;;;;43.33;14.18;;;-3.60;99.90;;;;;;5071082;28;20047;-51
2022/03/05 06:50:11;;;;;;;41.95;15.40;;;-3.60;99.90;;;;;;5071380;28;20040;-53
2022/03/05 06:52:38;;;;;;;20.65;7.90;;;-3.60;99.90;;;;;;5073588;28;20059;-54
2022/03/05 06:55:06;;;;;;;23.13;7.85;;;-3.60;99.90;;;;;;5073635;28;20056;-53
2022/03/05 06:57:34;;;;;;;24.55;10.35;;;-3.70;99.90;;;;;;5070508;28;20044;-52
2022/03/05 07:00:02;;;;;;;29.67;11.60;;;-3.70;99.90;;;;;;5069837;28;20459;-52
2022/03/05 07:02:29;;;;;;;27.85;10.90;;;-3.60;99.90;;;;;;5073138;28;20475;-51
2022/03/05 07:04:55;;;;;;;27.75;10.18;;;-3.60;99.90;;;;;;5073680;28;20044;-54
2022/03/05 07:07:22;;;;;;;32.80;13.38;;;-3.50;99.90;;;;;;5066350;28;20055;-52
2022/03/05 07:09:50;;;;;;;25.95;10.52;;;-3.40;99.90;;;;;;5071568;28;20040;-52
2022/03/05 07:12:17;;;;;;;25.80;8.43;;;-3.30;99.90;;;;;;5071266;28;20041;-55
2022/03/05 07:14:48;;;;;;;22.65;8.93;;;-3.20;99.90;;;;;;5072032;28;20040;-50
2022/03/05 07:17:16;;;;;;;28.73;10.15;;;-3.20;99.90;;;;;;5072966;28;20052;-53
2022/03/05 07:19:43;;;;;;;30.77;9.82;;;-3.10;99.90;;;;;;5072594;28;20060;-52
2022/03/05 07:22:11;;;;;;;32.70;11.20;;;-3.00;99.90;;;;;;5073139;28;20048;-51
2022/03/05 07:24:38;;;;;;;27.42;10.68;;;-2.90;99.90;;;;;;5066548;28;20087;-52
2022/03/05 07:27:05;;;;;;;24.58;9.65;;;-2.90;99.90;;;;;;5072721;28;20063;-54
2022/03/05 07:29:32;;;;;;;22.13;7.40;;;-2.90;99.90;;;;;;5072606;28;20110;-54
2022/03/05 07:31:59;;;;;;;20.50;10.05;;;-2.80;99.90;;;;;;5066000;28;20033;-51
2022/03/05 07:34:26;;;;;;;24.58;9.85;;;-2.70;99.90;;;;;;5064749;28;20127;-52
2022/03/05 07:36:53;;;;;;;25.77;9.30;;;-2.60;99.90;;;;;;5072706;28;20147;-51
2022/03/05 07:39:20;;;;;;;23.50;9.73;;;-2.50;99.90;;;;;;5072302;28;20048;-52
2022/03/05 07:41:47;;;;;;;;;;;-2.40;99.90;;;;;;5068840;28;20448;-53
2022/03/05 07:44:17;;;;;;;26.90;9.68;;;-2.40;99.90;;;;;;5071209;28;20391;-52
2022/03/05 07:46:44;;;;;;;24.30;9.05;;;-2.20;99.90;;;;;;5072659;28;20045;-55
2022/03/05 07:49:11;;;;;;;26.85;9.23;;;-2.10;99.90;;;;;;5064481;28;20040;-50
2022/03/05 07:51:38;;;;;;;26.48;9.63;;;-2.00;99.90;;;;;;5072217;28;20036;-53
2022/03/05 07:54:06;;;;;;;23.50;9.02;;;-1.90;99.90;;;;;;5072316;28;20040;-50
2022/03/05 07:56:32;;;;;;;;;;;-1.80;99.90;;;;;;5069579;28;20057;-50
2022/03/05 07:59:00;;;;;;;27.98;10.02;;;-1.60;99.90;;;;;;5071884;28;19969;-55
2022/03/05 08:01:26;;;;;;;19.00;9.13;;;-1.50;99.90;;;;;;5071644;28;20063;-51
2022/03/05 08:03:54;;;;;;;23.02;7.88;;;-1.50;99.90;;;;;;5071820;28;20044;-54
2022/03/05 08:06:21;;;;;;;23.70;8.52;;;-1.30;99.90;;;;;;5067657;28;20029;-52
2022/03/05 08:08:48;;;;;;;24.15;8.63;;;-1.20;99.90;;;;;;5071485;28;20459;-50
2022/03/05 08:11:15;;;;;;;20.50;7.80;;;-1.20;99.90;;;;;;5072255;28;20080;-54
2022/03/05 08:13:42;;;;;;;19.15;8.35;;;-1.00;99.90;;;;;;5072092;28;20040;-54
2022/03/05 08:16:08;;;;;;;21.13;8.20;;;-0.90;99.90;;;;;;5064290;28;20118;-51
2022/03/05 08:18:35;;;;;;;18.05;8.25;;;-0.90;99.90;;;;;;5071062;28;20094;-51
2022/03/05 08:21:02;;;;;;;13.48;5.97;;;-0.80;99.90;;;;;;5071830;28;20048;-51
2022/03/05 08:23:29;;;;;;;21.23;7.30;;;-0.60;99.90;;;;;;5071740;28;20497;-52
2022/03/05 08:25:56;;;;;;;20.70;6.00;;;-0.60;99.90;;;;;;5064901;28;20084;-51
2022/03/05 08:28:23;;;;;;;18.20;8.43;;;-0.60;99.90;;;;;;5071175;28;20032;-52
2022/03/05 08:30:49;;;;;;;19.45;7.93;;;-0.40;99.90;;;;;;5071727;28;20043;-51
2022/03/05 08:33:17;;;;;;;18.35;8.43;;;-0.30;99.90;;;;;;5068593;28;20068;-53
2022/03/05 08:35:44;;;;;;;17.35;7.72;;;-0.30;99.90;;;;;;5071454;28;20040;-51
2022/03/05 08:38:11;;;;;;;19.88;7.72;;;-0.20;99.90;;;;;;5070964;28;20049;-51
2022/03/05 08:40:38;;;;;;;18.95;7.43;;;0.00;99.90;;;;;;5068713;28;20036;-52
2022/03/05 08:43:05;;;;;;;;;;;0.10;99.90;;;;;;5069084;28;20066;-52
2022/03/05 08:45:32;;;;;;;22.85;8.70;;;0.10;99.90;;;;;;5071404;28;19920;-55
2022/03/05 08:47:59;;;;;;;16.73;7.88;;;0.10;99.90;;;;;;5070944;28;20115;-52
2022/03/05 08:50:26;;;;;;;20.27;8.23;;;0.20;99.90;;;;;;5067262;28;20555;-52
2022/03/05 08:52:53;;;;;;;17.67;8.35;;;0.20;99.90;;;;;;5070702;28;20048;-52
2022/03/05 08:55:20;;;;;;;27.73;8.55;;;0.30;99.90;;;;;;5071387;28;20049;-54
2022/03/05 08:57:47;;;;;;;15.10;6.57;;;0.30;99.90;;;;;;5063383;28;20295;-53
2022/03/05 09:00:15;;;;;;;18.17;7.68;;;0.20;99.90;;;;;;5070797;28;20657;-54
2022/03/05 09:02:42;;;;;;;18.80;7.85;;;0.40;99.90;;;;;;5071263;28;20067;-51
2022/03/05 09:05:13;;;;;;;16.42;7.05;;;0.50;99.90;;;;;;5071205;28;20051;-54
2022/03/05 09:07:44;;;;;;;16.70;8.13;;;0.60;99.90;;;;;;5065840;28;20066;-52
2022/03/05 09:10:11;;;;;;;18.35;8.18;;;0.70;99.90;;;;;;5071084;28;20382;-53
2022/03/05 09:12:38;;;;;;;19.05;8.18;;;0.80;99.90;;;;;;5071272;28;20049;-51
2022/03/05 09:15:06;;;;;;;16.45;7.35;;;1.00;99.90;;;;;;5070919;28;20101;-51
2022/03/05 09:17:33;;;;;;;20.27;7.65;;;1.20;99.90;;;;;;5065342;28;20087;-56
2022/03/05 09:20:00;;;;;;;20.58;7.35;;;1.30;99.90;;;;;;5070971;28;20033;-54
2022/03/05 09:22:27;;;;;;;17.30;7.70;;;1.40;99.90;;;;;;5071000;28;20041;-53
2022/03/05 09:24:54;;;;;;;12.57;5.93;;;1.50;99.90;;;;;;5069401;28;20041;-53
2022/03/05 09:27:25;;;;;;;20.02;8.10;;;1.60;99.90;;;;;;5062446;28;20118;-55
2022/03/05 09:29:51;;;;;;;16.67;7.57;;;1.70;99.90;;;;;;5070717;28;20041;-53
2022/03/05 09:32:19;;;;;;;16.33;7.65;;;1.70;99.90;;;;;;5071168;28;20458;-55
2022/03/05 09:34:46;;;;;;;16.35;7.20;;;1.70;99.90;;;;;;5067666;28;20531;-53
2022/03/05 09:37:13;;;;;;;18.90;7.00;;;1.70;99.90;;;;;;5071007;28;20076;-54
2022/03/05 09:39:40;;;;;;;14.20;5.90;;;1.80;99.90;;;;;;5070785;28;20066;-52
2022/03/05 09:42:08;;;;;;;15.27;7.55;;;1.90;99.90;;;;;;5063674;28;20512;-53
2022/03/05 09:44:38;;;;;;;18.83;7.95;;;2.00;99.90;;;;;;5070462;28;20048;-53
2022/03/05 09:47:06;;;;;;;15.23;7.30;;;2.10;99.90;;;;;;5071075;28;20386;-53
2022/03/05 09:49:40;;;;;;;14.73;6.90;;;2.20;99.90;;;;;;5070256;28;20228;-53
2022/03/05 09:52:08;;;;;;;17.85;8.23;;;2.40;99.90;;;;;;5069588;28;20489;-52
2022/03/05 09:54:36;;;;;;;17.42;7.95;;;2.30;98.60;;;;;;5070764;28;20443;-55
2022/03/05 09:57:12;;;;;;;16.63;7.93;;;2.30;98.80;;;;;;5070648;28;20036;-56
2022/03/05 09:59:39;;;;;;;15.48;7.57;;;2.40;98.80;;;;;;5067656;28;20082;-55
2022/03/05 10:02:07;;;;;;;16.27;7.70;;;2.50;97.70;;;;;;5070697;28;20040;-52
2022/03/05 10:04:34;;;;;;;18.50;7.22;;;2.50;96.80;;;;;;5071834;28;20049;-55
2022/03/05 10:07:17;;;;;;;28.80;8.60;;;2.60;96.80;;;;;;5067130;28;20071;-54
2022/03/05 10:09:46;;;;;;;18.50;8.55;;;2.60;96.80;;;;;;5073929;28;20052;-52
2022/03/05 10:12:33;;;;;;;20.40;8.43;;;2.60;96.80;;;;;;5074458;28;20067;-53
2022/03/05 10:15:07;;;;;;;14.30;7.65;;;2.60;96.90;;;;;;5073148;28;20417;-52
2022/03/05 10:17:51;;;;;;;17.35;8.23;;;2.70;96.60;;;;;;5070671;28;20032;-53
2022/03/05 10:20:20;;;;;;;17.25;8.15;;;2.60;96.70;;;;;;5074356;28;20052;-54
2022/03/05 10:22:55;;;;;;;18.25;8.73;;;2.70;97.40;;;;;;5074176;28;20037;-54
2022/03/05 10:25:41;;;;;;;19.27;8.82;;;2.70;97.40;;;;;;5066825;28;20037;-55
2022/03/05 10:28:18;;;;;;;22.40;9.00;;;2.70;99.10;;;;;;5073383;28;20493;-55
2022/03/05 10:30:53;;;;;;;21.02;8.80;;;2.80;99.20;;;;;;5073929;28;20048;-54
2022/03/05 10:33:47;;;;;;;19.27;8.90;;;2.90;98.40;;;;;;5072368;28;20040;-53
2022/03/05 10:36:23;;;;;;;20.58;10.02;;;3.10;97.40;;;;;;5074026;28;20413;-55
2022/03/05 10:38:59;;;;;;;26.95;10.43;;;3.10;98.50;;;;;;5073469;28;20127;-56
2022/03/05 10:41:40;;;;;;;19.23;8.40;;;3.10;99.10;;;;;;5073475;28;20064;-54
2022/03/05 10:44:10;;;;;;;24.83;9.55;;;3.10;96.50;;;;;;5071623;28;20036;-55
2022/03/05 10:46:43;;;;;;;18.50;9.38;;;3.10;96.40;;;;;;5073743;28;20040;-55
2022/03/05 10:49:19;;;;;;;23.80;10.18;;;3.20;97.70;;;;;;5072945;28;20041;-58
2022/03/05 10:51:59;;;;;;;24.23;10.02;;;3.30;97.50;;;;;;5070056;28;20743;-58
2022/03/05 10:54:32;;;;;;;21.30;10.90;;;3.30;97.50;;;;;;5053657;28;20106;-55
2022/03/05 10:57:09;;;;;;;24.80;10.40;;;3.50;97.80;;;;;;5053621;28;20048;-58
2022/03/05 10:59:42;;;;;;;18.15;9.65;;;3.50;96.30;;;;;;5057670;28;20107;-58
2022/03/05 11:02:11;;;;;;;20.83;10.50;;;3.50;97.10;;;;;;5073520;28;20461;-57
2022/03/05 11:04:45;;;;;;;21.25;10.43;;;3.70;96.00;;;;;;5073472;28;20079;-57
2022/03/05 11:07:16;;;;;;;26.30;11.05;;;3.70;97.70;;;;;;5067081;28;20045;-57
2022/03/05 11:09:44;;;;;;;20.90;10.63;;;3.70;96.20;;;;;;5072855;28;20044;-58
2022/03/05 11:12:19;;;;;;;24.98;11.20;;;3.70;96.30;;;;;;5073216;28;20056;-57
2022/03/05 11:14:51;;;;;;;26.73;11.25;;;3.60;96.20;;;;;;5067126;28;20090;-58
2022/03/05 11:17:19;;;;;;;23.73;10.27;;;3.70;97.20;;;;;;5071273;28;20086;-57
2022/03/05 11:19:46;;;;;;;24.95;11.20;;;3.90;96.50;;;;;;5072611;28;20045;-58
2022/03/05 11:22:14;;;;;;;;;;;3.90;96.10;;;;;;5070580;28;20498;-57
2022/03/05 11:24:45;;;;;;;;;;;3.90;96.90;;;;;;5073362;28;19927;-57
2022/03/05 11:27:13;;;;;;;20.15;9.50;;;3.90;95.70;;;;;;5072981;28;19981;-57
2022/03/05 11:30:04;;;;;;;23.27;10.25;;;4.00;96.70;;;;;;5071145;28;20083;-58
2022/03/05 11:32:35;;;;;;;25.90;11.45;;;4.10;96.50;;;;;;5063582;28;20550;-56
2022/03/05 11:35:24;;;;;;;20.52;10.23;;;4.10;95.40;;;;;;5072097;28;20041;-57
2022/03/05 11:37:52;;;;;;;28.27;11.80;;;4.30;95.70;;;;;;5072560;28;20045;-56
2022/03/05 11:40:32;;;;;;;23.27;10.77;;;4.20;95.80;;;;;;5069586;28;20435;-56
2022/03/05 11:43:37;;;;;;;24.67;10.88;;;4.30;95.30;;;;;;5072564;28;20515;-57
2022/03/05 11:46:05;;;;;;;23.13;10.88;;;4.30;95.40;;;;;;5072605;28;20504;-57
2022/03/05 11:48:34;;;;;;;21.03;10.93;;;4.40;95.20;;;;;;5068264;28;20098;-58
2022/03/05 11:51:08;;;;;;;24.75;10.52;;;4.40;95.20;;;;;;5072248;28;20285;-58
2022/03/05 11:53:35;;;;;;;24.75;10.93;;;4.40;93.90;;;;;;5072339;28;20424;-58
2022/03/05 11:56:21;;;;;;;25.88;11.13;;;4.50;94.00;;;;;;5065589;28;20401;-58
2022/03/05 11:58:49;;;;;;;28.98;12.07;;;4.60;94.20;;;;;;5071946;28;20036;-58
2022/03/05 12:01:50;;;;;;;23.45;11.75;;;4.70;94.20;;;;;;5072354;28;20090;-58
2022/03/05 12:04:19;;;;;;;20.67;11.32;;;4.80;94.30;;;;;;5058205;28;20060;-58
2022/03/05 12:06:49;;;;;;;22.52;11.88;;;4.80;94.00;;;;;;5072073;28;20068;-58
2022/03/05 12:09:45;;;;;;;22.92;11.20;;;4.70;94.30;;;;;;5070871;28;20047;-56
2022/03/05 12:12:16;;;;;;;24.27;11.40;;;4.80;94.00;;;;;;5070553;28;20044;-57
2022/03/05 12:14:55;;;;;;;21.58;10.52;;;4.80;93.60;;;;;;5071515;28;20098;-57
2022/03/05 12:17:23;;;;;;;23.60;11.07;;;4.80;94.60;;;;;;5069492;28;20056;-58
2022/03/05 12:19:50;;;;;;;25.63;11.23;;;4.80;93.00;;;;;;5070880;28;20044;-57
2022/03/05 12:22:17;;;;;;;24.80;10.95;;;4.90;92.30;;;;;;5067550;28;20467;-59
2022/03/05 12:24:45;;;;;;;24.92;10.90;;;4.90;93.50;;;;;;5071017;28;20295;-59
2022/03/05 12:27:15;;;;;;;21.58;10.82;;;5.00;92.60;;;;;;5070454;28;20041;-60
2022/03/05 12:29:52;;;;;;;21.50;10.70;;;5.20;92.40;;;;;;5068052;28;20043;-60
2022/03/05 12:32:27;;;;;;;20.77;10.77;;;5.30;92.10;;;;;;5070810;28;20439;-59
2022/03/05 12:35:02;;;;;;;23.92;10.95;;;5.30;90.30;;;;;;5069922;28;20043;-59
2022/03/05 12:37:30;;;;;;;24.00;10.73;;;5.30;91.00;;;;;;5071045;28;20511;-58
2022/03/05 12:39:58;;;;;;;22.92;9.85;;;5.40;90.40;;;;;;5069252;28;20040;-58
2022/03/05 12:42:54;;;;;;;;;;;5.50;90.80;;;;;;5052137;28;20450;-59
2022/03/05 12:45:25;;;;;;;20.50;10.48;;;5.40;90.30;;;;;;5049468;28;19920;-59
2022/03/05 12:47:54;;;;;;;18.40;10.15;;;5.40;89.20;;;;;;5071057;28;20106;-59
2022/03/05 12:50:30;;;;;;;19.90;9.63;;;5.30;88.60;;;;;;5071465;28;20040;-59
2022/03/05 12:53:07;;;;;;;20.10;9.85;;;5.20;88.10;;;;;;5064306;28;20470;-59
2022/03/05 12:55:40;;;;;;;22.30;10.88;;;5.30;89.30;;;;;;5064028;28;20044;-57